sensor_id;sensor_type;location;lat;lon;timestamp;temperature;humidity
72576;DHT22;60613;48.658;2.328;2023-10-31T10:10:56;21.30;56.10
72576;DHT22;60613;48.658;2.328;2023-10-31T10:13:22;21.30;55.30
72576;DHT22;60613;48.658;2.328;2023-10-31T10:15:49;21.40;55.80
72576;DHT22;60613;48.658;2.328;2023-10-31T10:18:31;21.40;55.30
72576;DHT22;60613;48.658;2.328;2023-10-31T10:20:57;21.40;55.40
72576;DHT22;60613;48.658;2.328;2023-10-31T10:23:24;21.40;55.80
72576;DHT22;60613;48.658;2.328;2023-10-31T10:25:50;21.40;56.00
72576;DHT22;60613;48.658;2.328;2023-10-31T10:28:17;21.40;55.60
72576;DHT22;60613;48.658;2.328;2023-10-31T10:30:45;21.40;55.50
72576;DHT22;60613;48.658;2.328;2023-10-31T10:33:12;21.40;55.20
72576;DHT22;60613;48.658;2.328;2023-10-31T10:35:37;21.40;55.20
72576;DHT22;60613;48.658;2.328;2023-10-31T10:38:10;21.40;55.20
72576;DHT22;60613;48.658;2.328;2023-10-31T10:40:37;21.40;55.00
72576;DHT22;60613;48.658;2.328;2023-10-31T10:43:06;21.40;55.30
72576;DHT22;60613;48.658;2.328;2023-10-31T10:45:36;21.40;55.10
72576;DHT22;60613;48.658;2.328;2023-10-31T10:48:05;21.40;55.00
72576;DHT22;60613;48.658;2.328;2023-10-31T10:50:34;21.40;54.90
72576;DHT22;60613;48.658;2.328;2023-10-31T10:55:41;21.40;55.00
72576;DHT22;60613;48.658;2.328;2023-10-31T11:00:49;21.40;54.70
72576;DHT22;60613;48.658;2.328;2023-10-31T11:03:17;21.40;54.50
72576;DHT22;60613;48.658;2.328;2023-10-31T11:05:45;21.40;54.30
72576;DHT22;60613;48.658;2.328;2023-10-31T11:08:11;21.50;54.40
72576;DHT22;60613;48.658;2.328;2023-10-31T11:10:37;21.40;54.20
72576;DHT22;60613;48.658;2.328;2023-10-31T11:13:03;21.50;54.10
72576;DHT22;60613;48.658;2.328;2023-10-31T11:15:29;21.50;54.00
72576;DHT22;60613;48.658;2.328;2023-10-31T11:17:56;21.40;54.00
72576;DHT22;60613;48.658;2.328;2023-10-31T11:20:24;21.50;53.80
72576;DHT22;60613;48.658;2.328;2023-10-31T11:22:55;21.50;53.20
72576;DHT22;60613;48.658;2.328;2023-10-31T11:25:23;21.50;53.10
72576;DHT22;60613;48.658;2.328;2023-10-31T11:27:53;21.40;52.90
72576;DHT22;60613;48.658;2.328;2023-10-31T11:32:52;21.40;52.70
72576;DHT22;60613;48.658;2.328;2023-10-31T11:35:18;21.40;52.80
72576;DHT22;60613;48.658;2.328;2023-10-31T11:37:47;21.40;52.50
72576;DHT22;60613;48.658;2.328;2023-10-31T11:42:46;21.40;52.50
72576;DHT22;60613;48.658;2.328;2023-10-31T11:45:12;21.40;52.30
72576;DHT22;60613;48.658;2.328;2023-10-31T11:47:48;21.40;52.10
72576;DHT22;60613;48.658;2.328;2023-10-31T11:50:14;21.40;52.10
72576;DHT22;60613;48.658;2.328;2023-10-31T11:52:39;21.40;52.10
72576;DHT22;60613;48.658;2.328;2023-10-31T11:55:09;21.40;52.30
72576;DHT22;60613;48.658;2.328;2023-10-31T11:57:36;21.40;52.60
72576;DHT22;60613;48.658;2.328;2023-10-31T12:00:02;21.40;52.80
72576;DHT22;60613;48.658;2.328;2023-10-31T12:02:29;21.40;53.10
72576;DHT22;60613;48.658;2.328;2023-10-31T12:05:11;21.40;53.10
72576;DHT22;60613;48.658;2.328;2023-10-31T12:07:44;21.40;53.10
72576;DHT22;60613;48.658;2.328;2023-10-31T12:10:10;21.40;53.10
72576;DHT22;60613;48.658;2.328;2023-10-31T12:12:35;21.40;52.90
72576;DHT22;60613;48.658;2.328;2023-10-31T12:15:08;21.40;53.10
72576;DHT22;60613;48.658;2.328;2023-10-31T12:17:34;21.40;53.10
72576;DHT22;60613;48.658;2.328;2023-10-31T12:20:07;21.40;52.80
72576;DHT22;60613;48.658;2.328;2023-10-31T12:22:34;21.40;52.80
72576;DHT22;60613;48.658;2.328;2023-10-31T12:25:07;21.40;53.00
72576;DHT22;60613;48.658;2.328;2023-10-31T12:27:48;21.40;53.10
72576;DHT22;60613;48.658;2.328;2023-10-31T12:30:16;21.40;53.00
72576;DHT22;60613;48.658;2.328;2023-10-31T12:32:42;21.40;53.10
72576;DHT22;60613;48.658;2.328;2023-10-31T12:35:13;21.40;53.20
72576;DHT22;60613;48.658;2.328;2023-10-31T12:37:49;21.40;53.10
72576;DHT22;60613;48.658;2.328;2023-10-31T12:40:18;21.40;53.20
72576;DHT22;60613;48.658;2.328;2023-10-31T12:42:45;21.40;53.10
72576;DHT22;60613;48.658;2.328;2023-10-31T12:45:14;21.40;53.10
72576;DHT22;60613;48.658;2.328;2023-10-31T12:47:41;21.40;53.00
72576;DHT22;60613;48.658;2.328;2023-10-31T12:50:13;21.40;52.90
72576;DHT22;60613;48.658;2.328;2023-10-31T12:52:52;21.40;53.00
72576;DHT22;60613;48.658;2.328;2023-10-31T12:55:19;21.40;52.60
72576;DHT22;60613;48.658;2.328;2023-10-31T12:57:46;21.40;52.80
72576;DHT22;60613;48.658;2.328;2023-10-31T13:00:17;21.40;52.70
72576;DHT22;60613;48.658;2.328;2023-10-31T13:02:59;21.50;52.60
72576;DHT22;60613;48.658;2.328;2023-10-31T13:05:26;21.50;52.50
72576;DHT22;60613;48.658;2.328;2023-10-31T13:07:53;21.50;52.50
72576;DHT22;60613;48.658;2.328;2023-10-31T13:10:20;21.60;52.60
72576;DHT22;60613;48.658;2.328;2023-10-31T13:12:47;21.70;52.70
72576;DHT22;60613;48.658;2.328;2023-10-31T13:15:13;21.70;52.70
72576;DHT22;60613;48.658;2.328;2023-10-31T13:17:40;21.70;52.80
72576;DHT22;60613;48.658;2.328;2023-10-31T13:20:09;21.80;52.70
72576;DHT22;60613;48.658;2.328;2023-10-31T13:22:35;21.80;52.60
72576;DHT22;60613;48.658;2.328;2023-10-31T13:25:05;21.80;53.80
72576;DHT22;60613;48.658;2.328;2023-10-31T13:27:32;21.80;52.50
72576;DHT22;60613;48.658;2.328;2023-10-31T13:29:58;21.80;52.70
72576;DHT22;60613;48.658;2.328;2023-10-31T13:32:23;21.80;52.70
72576;DHT22;60613;48.658;2.328;2023-10-31T13:34:49;21.90;52.60
72576;DHT22;60613;48.658;2.328;2023-10-31T13:37:15;21.90;52.70
72576;DHT22;60613;48.658;2.328;2023-10-31T13:39:40;21.90;52.80
72576;DHT22;60613;48.658;2.328;2023-10-31T13:42:06;22.00;52.80
72576;DHT22;60613;48.658;2.328;2023-10-31T13:44:32;22.00;52.80
72576;DHT22;60613;48.658;2.328;2023-10-31T13:46:57;22.00;52.70
72576;DHT22;60613;48.658;2.328;2023-10-31T13:49:23;22.00;52.80
72576;DHT22;60613;48.658;2.328;2023-10-31T13:51:49;22.00;52.70
72576;DHT22;60613;48.658;2.328;2023-10-31T13:54:15;22.10;52.70
72576;DHT22;60613;48.658;2.328;2023-10-31T13:56:40;22.10;52.70
72576;DHT22;60613;48.658;2.328;2023-10-31T13:59:06;22.10;52.60
72576;DHT22;60613;48.658;2.328;2023-10-31T14:01:32;22.00;52.50
72576;DHT22;60613;48.658;2.328;2023-10-31T14:03:57;22.10;53.60
72576;DHT22;60613;48.658;2.328;2023-10-31T14:06:23;22.10;52.70
72576;DHT22;60613;48.658;2.328;2023-10-31T14:08:51;22.10;52.90
72576;DHT22;60613;48.658;2.328;2023-10-31T14:11:17;22.10;52.20
72576;DHT22;60613;48.658;2.328;2023-10-31T14:13:42;22.10;51.70
72576;DHT22;60613;48.658;2.328;2023-10-31T14:16:10;22.00;52.00
72576;DHT22;60613;48.658;2.328;2023-10-31T14:18:37;21.90;52.10
72576;DHT22;60613;48.658;2.328;2023-10-31T14:21:03;21.90;52.50
72576;DHT22;60613;48.658;2.328;2023-10-31T14:23:28;21.90;52.50
72576;DHT22;60613;48.658;2.328;2023-10-31T14:25:54;22.00;52.40
72576;DHT22;60613;48.658;2.328;2023-10-31T14:28:20;22.00;52.30
72576;DHT22;60613;48.658;2.328;2023-10-31T14:30:45;22.00;52.30
72576;DHT22;60613;48.658;2.328;2023-10-31T14:33:11;22.00;52.40
72576;DHT22;60613;48.658;2.328;2023-10-31T14:35:36;22.00;52.60
72576;DHT22;60613;48.658;2.328;2023-10-31T14:38:02;22.00;52.70
72576;DHT22;60613;48.658;2.328;2023-10-31T14:40:28;22.10;52.80
72576;DHT22;60613;48.658;2.328;2023-10-31T14:42:53;22.10;52.00
72576;DHT22;60613;48.658;2.328;2023-10-31T14:45:19;22.10;51.90
72576;DHT22;60613;48.658;2.328;2023-10-31T14:47:44;22.00;52.10
72576;DHT22;60613;48.658;2.328;2023-10-31T14:50:10;22.00;52.20
72576;DHT22;60613;48.658;2.328;2023-10-31T14:52:35;22.00;52.30
72576;DHT22;60613;48.658;2.328;2023-10-31T14:55:01;22.00;52.30
72576;DHT22;60613;48.658;2.328;2023-10-31T14:57:27;22.00;52.20
72576;DHT22;60613;48.658;2.328;2023-10-31T14:59:52;21.90;52.10
72576;DHT22;60613;48.658;2.328;2023-10-31T15:02:18;21.90;52.20
72576;DHT22;60613;48.658;2.328;2023-10-31T15:04:43;22.00;52.10
72576;DHT22;60613;48.658;2.328;2023-10-31T15:07:09;22.00;52.10
72576;DHT22;60613;48.658;2.328;2023-10-31T15:09:34;22.00;52.10
72576;DHT22;60613;48.658;2.328;2023-10-31T15:12:00;21.90;52.00
72576;DHT22;60613;48.658;2.328;2023-10-31T15:14:25;21.90;51.90
72576;DHT22;60613;48.658;2.328;2023-10-31T15:16:51;22.00;51.90
72576;DHT22;60613;48.658;2.328;2023-10-31T15:19:16;22.00;51.90
72576;DHT22;60613;48.658;2.328;2023-10-31T15:21:42;22.00;51.90
72576;DHT22;60613;48.658;2.328;2023-10-31T15:24:08;22.00;51.80
72576;DHT22;60613;48.658;2.328;2023-10-31T15:26:36;22.00;51.80
72576;DHT22;60613;48.658;2.328;2023-10-31T15:29:04;21.90;52.00
72576;DHT22;60613;48.658;2.328;2023-10-31T15:31:30;21.90;51.90
72576;DHT22;60613;48.658;2.328;2023-10-31T15:33:55;21.90;52.00
72576;DHT22;60613;48.658;2.328;2023-10-31T15:36:21;21.90;51.90
72576;DHT22;60613;48.658;2.328;2023-10-31T15:38:47;21.90;51.90
72576;DHT22;60613;48.658;2.328;2023-10-31T15:41:13;21.90;52.00
72576;DHT22;60613;48.658;2.328;2023-10-31T15:43:38;21.90;52.10
72576;DHT22;60613;48.658;2.328;2023-10-31T15:46:04;21.90;52.10
72576;DHT22;60613;48.658;2.328;2023-10-31T15:48:30;21.90;52.20
72576;DHT22;60613;48.658;2.328;2023-10-31T15:50:56;21.90;52.30
72576;DHT22;60613;48.658;2.328;2023-10-31T15:53:21;21.90;52.10
72576;DHT22;60613;48.658;2.328;2023-10-31T15:55:49;21.90;52.20
72576;DHT22;60613;48.658;2.328;2023-10-31T15:58:14;21.90;52.20
72576;DHT22;60613;48.658;2.328;2023-10-31T16:00:40;21.90;52.30
72576;DHT22;60613;48.658;2.328;2023-10-31T16:03:06;21.90;52.30
72576;DHT22;60613;48.658;2.328;2023-10-31T16:05:31;21.90;52.40
72576;DHT22;60613;48.658;2.328;2023-10-31T16:07:58;21.90;52.60
72576;DHT22;60613;48.658;2.328;2023-10-31T16:10:24;21.90;52.80
72576;DHT22;60613;48.658;2.328;2023-10-31T16:12:50;21.90;52.60
72576;DHT22;60613;48.658;2.328;2023-10-31T16:15:15;21.90;52.10
72576;DHT22;60613;48.658;2.328;2023-10-31T16:17:42;21.90;51.90
72576;DHT22;60613;48.658;2.328;2023-10-31T16:20:07;21.90;51.90
72576;DHT22;60613;48.658;2.328;2023-10-31T16:22:33;21.90;51.90
72576;DHT22;60613;48.658;2.328;2023-10-31T16:24:58;21.90;52.00
72576;DHT22;60613;48.658;2.328;2023-10-31T16:27:24;21.90;52.00
72576;DHT22;60613;48.658;2.328;2023-10-31T16:29:50;21.90;51.90
72576;DHT22;60613;48.658;2.328;2023-10-31T16:32:15;21.90;51.90
72576;DHT22;60613;48.658;2.328;2023-10-31T16:34:41;21.90;51.90
72576;DHT22;60613;48.658;2.328;2023-10-31T16:37:12;22.00;51.90
72576;DHT22;60613;48.658;2.328;2023-10-31T16:39:37;21.90;51.90
72576;DHT22;60613;48.658;2.328;2023-10-31T16:42:03;21.90;51.90
72576;DHT22;60613;48.658;2.328;2023-10-31T16:44:29;22.00;51.90
72576;DHT22;60613;48.658;2.328;2023-10-31T16:46:54;22.00;52.00
72576;DHT22;60613;48.658;2.328;2023-10-31T16:49:22;22.00;51.90
72576;DHT22;60613;48.658;2.328;2023-10-31T16:51:48;22.00;51.90
72576;DHT22;60613;48.658;2.328;2023-10-31T16:54:15;22.00;51.80
72576;DHT22;60613;48.658;2.328;2023-10-31T16:56:40;22.00;51.80
72576;DHT22;60613;48.658;2.328;2023-10-31T16:59:06;22.00;51.80
72576;DHT22;60613;48.658;2.328;2023-10-31T17:01:32;22.00;51.80
72576;DHT22;60613;48.658;2.328;2023-10-31T17:03:57;22.00;51.80
72576;DHT22;60613;48.658;2.328;2023-10-31T17:06:23;22.10;51.70
72576;DHT22;60613;48.658;2.328;2023-10-31T17:08:48;22.00;51.80
72576;DHT22;60613;48.658;2.328;2023-10-31T17:11:14;22.10;51.80
72576;DHT22;60613;48.658;2.328;2023-10-31T17:13:39;22.00;51.70
72576;DHT22;60613;48.658;2.328;2023-10-31T17:16:05;22.00;51.70
72576;DHT22;60613;48.658;2.328;2023-10-31T17:18:33;22.00;51.70
72576;DHT22;60613;48.658;2.328;2023-10-31T17:20:58;22.00;51.80
72576;DHT22;60613;48.658;2.328;2023-10-31T17:23:24;21.90;51.70
72576;DHT22;60613;48.658;2.328;2023-10-31T17:25:50;22.00;51.80
72576;DHT22;60613;48.658;2.328;2023-10-31T17:28:17;21.90;51.70
72576;DHT22;60613;48.658;2.328;2023-10-31T17:30:43;21.90;51.70
72576;DHT22;60613;48.658;2.328;2023-10-31T17:33:11;21.90;51.80
72576;DHT22;60613;48.658;2.328;2023-10-31T17:35:37;22.00;51.80
72576;DHT22;60613;48.658;2.328;2023-10-31T17:38:03;21.90;51.70
72576;DHT22;60613;48.658;2.328;2023-10-31T17:40:30;22.00;51.70
72576;DHT22;60613;48.658;2.328;2023-10-31T17:42:56;21.90;51.60
72576;DHT22;60613;48.658;2.328;2023-10-31T17:45:22;22.00;51.70
72576;DHT22;60613;48.658;2.328;2023-10-31T17:47:50;22.00;51.70
72576;DHT22;60613;48.658;2.328;2023-10-31T17:50:15;22.00;51.60
72576;DHT22;60613;48.658;2.328;2023-10-31T17:52:41;22.10;51.60
72576;DHT22;60613;48.658;2.328;2023-10-31T17:55:07;22.00;51.30
72576;DHT22;60613;48.658;2.328;2023-10-31T17:57:32;22.10;51.50
72576;DHT22;60613;48.658;2.328;2023-10-31T18:00:01;22.10;51.50
72576;DHT22;60613;48.658;2.328;2023-10-31T18:02:27;22.00;51.40
72576;DHT22;60613;48.658;2.328;2023-10-31T18:04:53;22.00;51.40
72576;DHT22;60613;48.658;2.328;2023-10-31T18:07:19;22.00;51.30
72576;DHT22;60613;48.658;2.328;2023-10-31T18:09:44;22.00;51.40
72576;DHT22;60613;48.658;2.328;2023-10-31T18:12:10;22.00;51.30
72576;DHT22;60613;48.658;2.328;2023-10-31T18:14:38;21.90;51.50
72576;DHT22;60613;48.658;2.328;2023-10-31T18:17:04;21.90;51.50
72576;DHT22;60613;48.658;2.328;2023-10-31T18:19:29;21.90;51.50
72576;DHT22;60613;48.658;2.328;2023-10-31T18:21:55;21.80;51.50
72576;DHT22;60613;48.658;2.328;2023-10-31T18:24:22;21.80;51.60
72576;DHT22;60613;48.658;2.328;2023-10-31T18:26:47;21.80;51.60
72576;DHT22;60613;48.658;2.328;2023-10-31T18:29:13;21.80;51.80
72576;DHT22;60613;48.658;2.328;2023-10-31T18:31:39;21.70;51.90
72576;DHT22;60613;48.658;2.328;2023-10-31T18:34:04;21.70;51.90
72576;DHT22;60613;48.658;2.328;2023-10-31T18:36:30;21.70;52.00
72576;DHT22;60613;48.658;2.328;2023-10-31T18:38:57;21.70;52.00
72576;DHT22;60613;48.658;2.328;2023-10-31T18:41:23;21.70;52.00
72576;DHT22;60613;48.658;2.328;2023-10-31T18:43:48;21.70;52.00
72576;DHT22;60613;48.658;2.328;2023-10-31T18:46:14;21.70;52.00
72576;DHT22;60613;48.658;2.328;2023-10-31T18:48:40;21.60;52.00
72576;DHT22;60613;48.658;2.328;2023-10-31T18:51:06;21.70;52.10
72576;DHT22;60613;48.658;2.328;2023-10-31T18:53:31;21.70;52.00
72576;DHT22;60613;48.658;2.328;2023-10-31T18:55:57;21.70;52.00
72576;DHT22;60613;48.658;2.328;2023-10-31T18:58:22;21.70;51.90
72576;DHT22;60613;48.658;2.328;2023-10-31T19:00:48;21.70;51.80
72576;DHT22;60613;48.658;2.328;2023-10-31T19:03:14;21.70;51.90
72576;DHT22;60613;48.658;2.328;2023-10-31T19:05:40;21.70;51.70
72576;DHT22;60613;48.658;2.328;2023-10-31T19:08:06;21.70;51.90
72576;DHT22;60613;48.658;2.328;2023-10-31T19:10:31;21.70;51.70
72576;DHT22;60613;48.658;2.328;2023-10-31T19:12:57;21.70;51.80
72576;DHT22;60613;48.658;2.328;2023-10-31T19:15:22;21.70;51.70
72576;DHT22;60613;48.658;2.328;2023-10-31T19:17:48;21.70;51.70
72576;DHT22;60613;48.658;2.328;2023-10-31T19:20:14;21.70;51.70
72576;DHT22;60613;48.658;2.328;2023-10-31T19:22:39;21.70;51.70
72576;DHT22;60613;48.658;2.328;2023-10-31T19:25:05;21.70;51.80
72576;DHT22;60613;48.658;2.328;2023-10-31T19:27:31;21.70;51.80
72576;DHT22;60613;48.658;2.328;2023-10-31T19:29:56;21.70;51.70
72576;DHT22;60613;48.658;2.328;2023-10-31T19:32:26;21.60;51.70
72576;DHT22;60613;48.658;2.328;2023-10-31T19:34:52;21.60;51.80
72576;DHT22;60613;48.658;2.328;2023-10-31T19:37:18;21.60;51.90
72576;DHT22;60613;48.658;2.328;2023-10-31T19:39:43;21.60;52.00
72576;DHT22;60613;48.658;2.328;2023-10-31T19:42:09;21.60;52.30
72576;DHT22;60613;48.658;2.328;2023-10-31T19:44:34;21.50;52.20
72576;DHT22;60613;48.658;2.328;2023-10-31T19:47:00;21.50;52.40
72576;DHT22;60613;48.658;2.328;2023-10-31T19:49:26;21.50;52.50
72576;DHT22;60613;48.658;2.328;2023-10-31T19:51:51;21.50;52.50
72576;DHT22;60613;48.658;2.328;2023-10-31T19:54:17;21.40;52.50
72576;DHT22;60613;48.658;2.328;2023-10-31T19:56:43;21.40;52.80
72576;DHT22;60613;48.658;2.328;2023-10-31T19:59:08;21.40;52.80
